AFL635 VTSP-UNKL
Flight info
| Callsign | AFL635 |
|---|---|
| Flight time | N/A |
| Altitude | 33000 |
| Route | IGEVI Y5 MENEX G458 BKK W21 NOBER B346 LPB/N0498F350 B218 SAGAG/K0932S1070 A581 BIDRU A581 SGM W144 VEDPO/K0928S1100 W144 IGNAK W179 WFX W179 OMBON W195 W195 MORIT B480 UGSAR B480 BEGVO Y746 DARNO/K0900F360 P982 LAMSU N869 RO A311 LALOM |
| Aircraft | B77W/H-SDE1E2E3FGHIJ2J3J4J5M1RWXY/LB1D1 |
Departure
| Time | 2026-05-07 07:04 |
|---|---|
| Airport | Phuket International Airport (VTSP) |
Arrival
| Time | N/A |
|---|---|
| Airport | Krasnoyarsk International Airport (UNKL) |
| Time | Latitude | Longitude | Altitude | Speed | Heading |
|---|---|---|---|---|---|
| 2026-05-07 06:50 | 8.93335 | 98.72107 | 14860 ft | 349 kts | 183° |
| 2026-05-07 06:50 | 8.90951 | 98.71793 | 14845 ft | 344 kts | 195° |
| 2026-05-07 06:50 | 8.88802 | 98.70707 | 14854 ft | 350 kts | 217° |
| 2026-05-07 06:51 | 8.87164 | 98.68873 | 14887 ft | 357 kts | 238° |
| 2026-05-07 06:51 | 8.86232 | 98.66541 | 14854 ft | 362 kts | 259° |
| 2026-05-07 06:51 | 8.86161 | 98.64002 | 14863 ft | 364 kts | 281° |
| 2026-05-07 06:51 | 8.87009 | 98.61619 | 14856 ft | 362 kts | 303° |
| 2026-05-07 06:52 | 8.88664 | 98.59733 | 14859 ft | 358 kts | 325° |
| 2026-05-07 06:52 | 8.90860 | 98.58597 | 14858 ft | 353 kts | 345° |
| 2026-05-07 06:52 | 8.93266 | 98.58238 | 14861 ft | 347 kts | 4° |
| 2026-05-07 06:52 | 8.95660 | 98.58434 | 14877 ft | 345 kts | 8° |
| 2026-05-07 06:53 | 8.98052 | 98.58684 | 14865 ft | 346 kts | 8° |
| 2026-05-07 06:53 | 9.00454 | 98.58930 | 14853 ft | 346 kts | 7° |
| 2026-05-07 06:53 | 9.02853 | 98.59158 | 14860 ft | 347 kts | 7° |
| 2026-05-07 06:53 | 9.05259 | 98.59376 | 14856 ft | 347 kts | 7° |
| 2026-05-07 06:54 | 9.07670 | 98.59593 | 14852 ft | 346 kts | 7° |
| 2026-05-07 06:54 | 9.09938 | 98.60116 | 14848 ft | 337 kts | 27° |
| 2026-05-07 06:54 | 9.11830 | 98.61465 | 14859 ft | 333 kts | 49° |
| 2026-05-07 06:54 | 9.13074 | 98.63411 | 14858 ft | 331 kts | 70° |
| 2026-05-07 06:55 | 9.13524 | 98.65682 | 14877 ft | 331 kts | 91° |
| 2026-05-07 06:55 | 9.13143 | 98.67972 | 14860 ft | 333 kts | 110° |
| 2026-05-07 06:55 | 9.11964 | 98.69990 | 14862 ft | 336 kts | 131° |
| 2026-05-07 06:55 | 9.10120 | 98.71443 | 14873 ft | 340 kts | 152° |
| 2026-05-07 06:56 | 9.07841 | 98.72105 | 14874 ft | 345 kts | 174° |
| 2026-05-07 06:56 | 9.05463 | 98.71847 | 14891 ft | 346 kts | 195° |
| 2026-05-07 06:56 | 9.03312 | 98.70767 | 14875 ft | 347 kts | 213° |
| 2026-05-07 06:56 | 9.01351 | 98.69324 | 14871 ft | 352 kts | 215° |
| 2026-05-07 06:57 | 8.99392 | 98.67815 | 14859 ft | 355 kts | 216° |
| 2026-05-07 06:57 | 8.97430 | 98.66291 | 14868 ft | 357 kts | 216° |
| 2026-05-07 06:57 | 8.95440 | 98.64755 | 14696 ft | 363 kts | 216° |
| 2026-05-07 06:57 | 8.93398 | 98.63191 | 14112 ft | 374 kts | 215° |
| 2026-05-07 06:58 | 8.91284 | 98.61585 | 13471 ft | 386 kts | 215° |
| 2026-05-07 06:58 | 8.89125 | 98.59954 | 13061 ft | 390 kts | 215° |
| 2026-05-07 06:58 | 8.86944 | 98.58312 | 12728 ft | 390 kts | 215° |
| 2026-05-07 06:58 | 8.84762 | 98.56669 | 12351 ft | 393 kts | 215° |
| 2026-05-07 06:59 | 8.82561 | 98.55012 | 11988 ft | 395 kts | 215° |
| 2026-05-07 06:59 | 8.80343 | 98.53409 | 11629 ft | 387 kts | 208° |
| 2026-05-07 06:59 | 8.77963 | 98.52184 | 11045 ft | 382 kts | 208° |
| 2026-05-07 06:59 | 8.75791 | 98.50588 | 10559 ft | 389 kts | 218° |
| 2026-05-07 07:00 | 8.73765 | 98.48812 | 10514 ft | 382 kts | 219° |
| 2026-05-07 07:00 | 8.71758 | 98.47088 | 10457 ft | 375 kts | 218° |
| 2026-05-07 07:00 | 8.69736 | 98.45459 | 10432 ft | 368 kts | 216° |
| 2026-05-07 07:00 | 8.67717 | 98.43903 | 10398 ft | 362 kts | 215° |
| 2026-05-07 07:01 | 8.65722 | 98.42389 | 10295 ft | 354 kts | 215° |
| 2026-05-07 07:01 | 8.63765 | 98.40959 | 10120 ft | 337 kts | 207° |
| 2026-05-07 07:01 | 8.61627 | 98.40235 | 10025 ft | 319 kts | 183° |
| 2026-05-07 07:01 | 8.59477 | 98.40332 | 9961 ft | 301 kts | 167° |
| 2026-05-07 07:02 | 8.57517 | 98.40928 | 9782 ft | 290 kts | 151° |
| 2026-05-07 07:02 | 8.55794 | 98.41890 | 9656 ft | 287 kts | 148° |
| 2026-05-07 07:02 | 8.54070 | 98.42923 | 9493 ft | 289 kts | 147° |
| 2026-05-07 07:02 | 8.52361 | 98.43953 | 9337 ft | 283 kts | 147° |
| 2026-05-07 07:03 | 8.50686 | 98.44960 | 9211 ft | 276 kts | 147° |
| 2026-05-07 07:03 | 8.49049 | 98.45926 | 9040 ft | 270 kts | 151° |
| 2026-05-07 07:03 | 8.47277 | 98.46594 | 8651 ft | 275 kts | 162° |
| 2026-05-07 07:03 | 8.45426 | 98.47082 | 8333 ft | 275 kts | 163° |
| 2026-05-07 07:04 | 8.43569 | 98.47544 | 8000 ft | 274 kts | 163° |
| 2026-05-07 07:04 | 8.41725 | 98.48013 | 7679 ft | 272 kts | 163° |
| 2026-05-07 07:04 | 8.39892 | 98.48491 | 7344 ft | 272 kts | 163° |
| 2026-05-07 07:04 | 8.38068 | 98.48976 | 7038 ft | 270 kts | 162° |
| 2026-05-07 07:05 | 8.36844 | 98.49307 | 6837 ft | 269 kts | 162° |
| 2026-05-07 07:05 | 8.35728 | 98.49612 | 6658 ft | 266 kts | 162° |